sensor_id;sensor_type;location;lat;lon;timestamp;P1;durP1;ratioP1;P2;durP2;ratioP2
8704;SDS011;4389;41.932;25.904;2022-10-15T00:01:13;10.43;;;3.33;;
8704;SDS011;4389;41.932;25.904;2022-10-15T00:03:41;6.43;;;3.23;;
8704;SDS011;4389;41.932;25.904;2022-10-15T00:06:11;10.00;;;3.40;;
8704;SDS011;4389;41.932;25.904;2022-10-15T00:08:39;9.27;;;3.37;;
8704;SDS011;4389;41.932;25.904;2022-10-15T00:11:06;6.30;;;3.03;;
8704;SDS011;4389;41.932;25.904;2022-10-15T00:13:36;8.43;;;3.20;;
8704;SDS011;4389;41.932;25.904;2022-10-15T00:16:05;5.13;;;2.90;;
8704;SDS011;4389;41.932;25.904;2022-10-15T00:18:37;6.10;;;3.57;;
8704;SDS011;4389;41.932;25.904;2022-10-15T00:21:05;4.00;;;2.70;;
8704;SDS011;4389;41.932;25.904;2022-10-15T00:23:34;6.80;;;3.27;;
8704;SDS011;4389;41.932;25.904;2022-10-15T00:26:03;7.73;;;3.30;;
8704;SDS011;4389;41.932;25.904;2022-10-15T00:28:31;7.07;;;2.90;;
8704;SDS011;4389;41.932;25.904;2022-10-15T00:30:59;7.07;;;2.80;;
8704;SDS011;4389;41.932;25.904;2022-10-15T00:33:26;6.33;;;3.20;;
8704;SDS011;4389;41.932;25.904;2022-10-15T00:35:57;4.13;;;2.80;;
8704;SDS011;4389;41.932;25.904;2022-10-15T00:38:24;8.90;;;3.23;;
8704;SDS011;4389;41.932;25.904;2022-10-15T00:40:53;6.27;;;3.13;;
8704;SDS011;4389;41.932;25.904;2022-10-15T00:43:34;7.63;;;3.40;;
8704;SDS011;4389;41.932;25.904;2022-10-15T00:46:02;7.97;;;3.20;;
8704;SDS011;4389;41.932;25.904;2022-10-15T00:48:29;5.70;;;3.00;;
8704;SDS011;4389;41.932;25.904;2022-10-15T00:50:57;7.90;;;3.20;;
8704;SDS011;4389;41.932;25.904;2022-10-15T00:53:28;6.60;;;3.00;;
8704;SDS011;4389;41.932;25.904;2022-10-15T00:55:57;7.07;;;3.47;;
8704;SDS011;4389;41.932;25.904;2022-10-15T00:58:25;7.30;;;3.00;;
8704;SDS011;4389;41.932;25.904;2022-10-15T01:00:57;5.00;;;3.00;;
8704;SDS011;4389;41.932;25.904;2022-10-15T01:03:24;10.30;;;3.13;;
8704;SDS011;4389;41.932;25.904;2022-10-15T01:05:51;7.33;;;3.17;;
8704;SDS011;4389;41.932;25.904;2022-10-15T01:08:19;7.50;;;3.63;;
8704;SDS011;4389;41.932;25.904;2022-10-15T01:10:47;6.80;;;2.60;;
8704;SDS011;4389;41.932;25.904;2022-10-15T01:13:23;9.87;;;3.53;;
8704;SDS011;4389;41.932;25.904;2022-10-15T01:15:59;3.87;;;2.90;;
8704;SDS011;4389;41.932;25.904;2022-10-15T01:18:32;8.33;;;2.90;;
8704;SDS011;4389;41.932;25.904;2022-10-15T01:21:07;6.53;;;4.03;;
8704;SDS011;4389;41.932;25.904;2022-10-15T01:26:53;8.97;;;3.03;;
8704;SDS011;4389;41.932;25.904;2022-10-15T01:29:55;5.50;;;3.30;;
8704;SDS011;4389;41.932;25.904;2022-10-15T01:32:32;4.73;;;2.77;;
8704;SDS011;4389;41.932;25.904;2022-10-15T01:35:03;4.40;;;2.63;;
8704;SDS011;4389;41.932;25.904;2022-10-15T01:37:38;6.17;;;3.20;;
8704;SDS011;4389;41.932;25.904;2022-10-15T01:40:12;5.70;;;2.83;;
8704;SDS011;4389;41.932;25.904;2022-10-15T01:42:43;7.57;;;2.93;;
8704;SDS011;4389;41.932;25.904;2022-10-15T01:45:15;7.87;;;2.87;;
8704;SDS011;4389;41.932;25.904;2022-10-15T01:47:51;7.17;;;2.57;;
8704;SDS011;4389;41.932;25.904;2022-10-15T01:50:20;12.63;;;3.00;;
8704;SDS011;4389;41.932;25.904;2022-10-15T01:52:50;4.37;;;2.50;;
8704;SDS011;4389;41.932;25.904;2022-10-15T01:55:20;6.50;;;2.60;;
8704;SDS011;4389;41.932;25.904;2022-10-15T01:57:49;5.87;;;3.13;;
8704;SDS011;4389;41.932;25.904;2022-10-15T02:00:17;8.50;;;3.00;;
8704;SDS011;4389;41.932;25.904;2022-10-15T02:02:44;8.10;;;2.87;;
8704;SDS011;4389;41.932;25.904;2022-10-15T02:05:14;5.10;;;2.73;;
8704;SDS011;4389;41.932;25.904;2022-10-15T02:07:46;6.95;;;2.75;;
8704;SDS011;4389;41.932;25.904;2022-10-15T02:10:21;8.73;;;2.93;;
8704;SDS011;4389;41.932;25.904;2022-10-15T02:13:02;5.80;;;2.40;;
8704;SDS011;4389;41.932;25.904;2022-10-15T02:15:39;12.33;;;2.87;;
8704;SDS011;4389;41.932;25.904;2022-10-15T02:18:12;9.57;;;2.67;;
8704;SDS011;4389;41.932;25.904;2022-10-15T02:20:47;8.23;;;2.40;;
8704;SDS011;4389;41.932;25.904;2022-10-15T02:23:21;7.87;;;2.00;;
8704;SDS011;4389;41.932;25.904;2022-10-15T02:25:52;7.03;;;2.97;;
8704;SDS011;4389;41.932;25.904;2022-10-15T02:28:22;7.47;;;3.07;;
8704;SDS011;4389;41.932;25.904;2022-10-15T02:30:51;8.30;;;2.53;;
8704;SDS011;4389;41.932;25.904;2022-10-15T02:33:20;6.77;;;2.60;;
8704;SDS011;4389;41.932;25.904;2022-10-15T02:35:51;4.00;;;2.10;;
8704;SDS011;4389;41.932;25.904;2022-10-15T02:38:19;6.73;;;2.70;;
8704;SDS011;4389;41.932;25.904;2022-10-15T02:40:49;4.93;;;2.50;;
8704;SDS011;4389;41.932;25.904;2022-10-15T02:43:18;4.33;;;2.57;;
8704;SDS011;4389;41.932;25.904;2022-10-15T02:45:46;4.63;;;2.37;;
8704;SDS011;4389;41.932;25.904;2022-10-15T02:48:13;4.97;;;2.40;;
8704;SDS011;4389;41.932;25.904;2022-10-15T02:50:40;7.27;;;2.40;;
8704;SDS011;4389;41.932;25.904;2022-10-15T02:53:08;5.67;;;2.13;;
8704;SDS011;4389;41.932;25.904;2022-10-15T02:55:35;4.60;;;2.60;;
8704;SDS011;4389;41.932;25.904;2022-10-15T02:58:02;9.67;;;2.43;;
8704;SDS011;4389;41.932;25.904;2022-10-15T03:00:29;3.67;;;2.20;;
8704;SDS011;4389;41.932;25.904;2022-10-15T03:02:55;4.00;;;1.93;;
8704;SDS011;4389;41.932;25.904;2022-10-15T03:05:22;10.13;;;2.80;;
8704;SDS011;4389;41.932;25.904;2022-10-15T03:07:49;5.77;;;2.13;;
8704;SDS011;4389;41.932;25.904;2022-10-15T03:10:17;4.83;;;2.30;;
8704;SDS011;4389;41.932;25.904;2022-10-15T03:12:44;4.50;;;2.43;;
8704;SDS011;4389;41.932;25.904;2022-10-15T03:15:11;9.47;;;3.20;;
8704;SDS011;4389;41.932;25.904;2022-10-15T03:17:38;6.33;;;2.30;;
8704;SDS011;4389;41.932;25.904;2022-10-15T03:20:05;4.87;;;2.00;;
8704;SDS011;4389;41.932;25.904;2022-10-15T03:22:32;6.50;;;2.10;;
8704;SDS011;4389;41.932;25.904;2022-10-15T03:24:59;6.77;;;2.13;;
8704;SDS011;4389;41.932;25.904;2022-10-15T03:27:27;10.13;;;2.37;;
8704;SDS011;4389;41.932;25.904;2022-10-15T03:29:54;6.27;;;2.40;;
8704;SDS011;4389;41.932;25.904;2022-10-15T03:32:20;4.37;;;2.27;;
8704;SDS011;4389;41.932;25.904;2022-10-15T03:34:47;4.03;;;2.57;;
8704;SDS011;4389;41.932;25.904;2022-10-15T03:37:14;8.30;;;2.47;;
8704;SDS011;4389;41.932;25.904;2022-10-15T03:39:41;5.80;;;2.53;;
8704;SDS011;4389;41.932;25.904;2022-10-15T03:42:08;4.40;;;1.97;;
8704;SDS011;4389;41.932;25.904;2022-10-15T03:44:36;6.30;;;2.03;;
8704;SDS011;4389;41.932;25.904;2022-10-15T03:47:03;5.37;;;2.10;;
8704;SDS011;4389;41.932;25.904;2022-10-15T03:49:29;5.20;;;2.23;;
8704;SDS011;4389;41.932;25.904;2022-10-15T03:51:56;3.33;;;2.67;;
8704;SDS011;4389;41.932;25.904;2022-10-15T03:54:24;3.33;;;2.17;;
8704;SDS011;4389;41.932;25.904;2022-10-15T03:56:51;3.13;;;2.30;;
8704;SDS011;4389;41.932;25.904;2022-10-15T03:59:17;7.87;;;3.03;;
8704;SDS011;4389;41.932;25.904;2022-10-15T04:01:46;6.63;;;2.30;;
8704;SDS011;4389;41.932;25.904;2022-10-15T04:04:12;4.27;;;2.23;;
8704;SDS011;4389;41.932;25.904;2022-10-15T04:06:39;4.83;;;2.40;;
8704;SDS011;4389;41.932;25.904;2022-10-15T04:09:06;4.57;;;2.37;;
8704;SDS011;4389;41.932;25.904;2022-10-15T04:11:35;7.13;;;2.87;;
8704;SDS011;4389;41.932;25.904;2022-10-15T04:14:02;10.63;;;2.77;;
8704;SDS011;4389;41.932;25.904;2022-10-15T04:16:29;11.33;;;2.80;;
8704;SDS011;4389;41.932;25.904;2022-10-15T04:18:57;5.80;;;2.60;;
8704;SDS011;4389;41.932;25.904;2022-10-15T04:21:24;2.90;;;2.00;;
8704;SDS011;4389;41.932;25.904;2022-10-15T04:23:51;6.37;;;3.70;;
8704;SDS011;4389;41.932;25.904;2022-10-15T04:26:17;10.57;;;2.63;;
8704;SDS011;4389;41.932;25.904;2022-10-15T04:28:46;10.87;;;2.67;;
8704;SDS011;4389;41.932;25.904;2022-10-15T04:31:13;4.87;;;2.00;;
8704;SDS011;4389;41.932;25.904;2022-10-15T04:33:40;3.07;;;1.87;;
8704;SDS011;4389;41.932;25.904;2022-10-15T04:36:10;2.90;;;1.70;;
8704;SDS011;4389;41.932;25.904;2022-10-15T04:38:38;5.13;;;2.23;;
8704;SDS011;4389;41.932;25.904;2022-10-15T04:41:06;6.03;;;2.00;;
8704;SDS011;4389;41.932;25.904;2022-10-15T04:43:34;6.47;;;2.67;;
8704;SDS011;4389;41.932;25.904;2022-10-15T04:46:04;6.70;;;2.10;;
8704;SDS011;4389;41.932;25.904;2022-10-15T04:48:33;13.70;;;4.63;;
8704;SDS011;4389;41.932;25.904;2022-10-15T04:51:03;6.43;;;2.37;;
8704;SDS011;4389;41.932;25.904;2022-10-15T04:53:32;5.73;;;2.03;;
8704;SDS011;4389;41.932;25.904;2022-10-15T04:56:00;5.63;;;2.10;;
8704;SDS011;4389;41.932;25.904;2022-10-15T04:58:28;5.83;;;2.40;;
8704;SDS011;4389;41.932;25.904;2022-10-15T05:00:58;10.27;;;2.80;;
8704;SDS011;4389;41.932;25.904;2022-10-15T05:03:26;5.10;;;2.37;;
8704;SDS011;4389;41.932;25.904;2022-10-15T05:05:58;7.60;;;2.00;;
8704;SDS011;4389;41.932;25.904;2022-10-15T05:08:26;7.17;;;2.90;;
8704;SDS011;4389;41.932;25.904;2022-10-15T05:10:54;18.17;;;3.63;;
8704;SDS011;4389;41.932;25.904;2022-10-15T05:13:24;14.80;;;3.50;;
8704;SDS011;4389;41.932;25.904;2022-10-15T05:15:51;15.03;;;2.97;;
8704;SDS011;4389;41.932;25.904;2022-10-15T05:18:18;7.87;;;2.63;;
8704;SDS011;4389;41.932;25.904;2022-10-15T05:20:45;7.53;;;2.80;;
8704;SDS011;4389;41.932;25.904;2022-10-15T05:23:12;7.90;;;2.90;;
8704;SDS011;4389;41.932;25.904;2022-10-15T05:25:38;8.97;;;2.60;;
8704;SDS011;4389;41.932;25.904;2022-10-15T05:28:07;8.60;;;3.47;;
8704;SDS011;4389;41.932;25.904;2022-10-15T05:30:33;5.43;;;3.07;;
8704;SDS011;4389;41.932;25.904;2022-10-15T05:33:00;8.90;;;3.63;;
8704;SDS011;4389;41.932;25.904;2022-10-15T05:35:27;5.90;;;3.23;;
8704;SDS011;4389;41.932;25.904;2022-10-15T05:37:54;4.00;;;2.80;;
8704;SDS011;4389;41.932;25.904;2022-10-15T05:40:21;6.77;;;2.83;;
8704;SDS011;4389;41.932;25.904;2022-10-15T05:42:50;10.63;;;2.70;;
8704;SDS011;4389;41.932;25.904;2022-10-15T05:45:19;5.17;;;2.60;;
8704;SDS011;4389;41.932;25.904;2022-10-15T05:47:46;5.90;;;3.30;;
8704;SDS011;4389;41.932;25.904;2022-10-15T05:50:12;9.53;;;2.87;;
8704;SDS011;4389;41.932;25.904;2022-10-15T05:52:39;4.03;;;2.63;;
8704;SDS011;4389;41.932;25.904;2022-10-15T05:55:06;6.93;;;3.10;;
8704;SDS011;4389;41.932;25.904;2022-10-15T05:57:34;7.23;;;3.30;;
8704;SDS011;4389;41.932;25.904;2022-10-15T06:00:00;4.50;;;2.90;;
8704;SDS011;4389;41.932;25.904;2022-10-15T06:02:30;7.17;;;3.00;;
8704;SDS011;4389;41.932;25.904;2022-10-15T06:04:57;9.33;;;2.93;;
8704;SDS011;4389;41.932;25.904;2022-10-15T06:07:24;6.40;;;3.47;;
8704;SDS011;4389;41.932;25.904;2022-10-15T06:09:51;6.50;;;3.07;;
8704;SDS011;4389;41.932;25.904;2022-10-15T06:12:18;8.17;;;3.47;;
8704;SDS011;4389;41.932;25.904;2022-10-15T06:14:45;5.43;;;2.97;;
8704;SDS011;4389;41.932;25.904;2022-10-15T06:17:12;7.47;;;3.00;;
8704;SDS011;4389;41.932;25.904;2022-10-15T06:19:40;6.07;;;2.60;;
8704;SDS011;4389;41.932;25.904;2022-10-15T06:22:07;4.13;;;3.20;;
8704;SDS011;4389;41.932;25.904;2022-10-15T06:24:33;9.53;;;3.30;;
8704;SDS011;4389;41.932;25.904;2022-10-15T06:27:00;4.80;;;2.67;;
8704;SDS011;4389;41.932;25.904;2022-10-15T06:29:27;6.37;;;3.30;;
8704;SDS011;4389;41.932;25.904;2022-10-15T06:31:54;5.03;;;2.87;;
8704;SDS011;4389;41.932;25.904;2022-10-15T06:34:21;6.90;;;2.93;;
8704;SDS011;4389;41.932;25.904;2022-10-15T06:36:49;7.97;;;3.23;;
8704;SDS011;4389;41.932;25.904;2022-10-15T06:39:16;5.70;;;2.93;;
8704;SDS011;4389;41.932;25.904;2022-10-15T06:41:43;6.90;;;2.80;;
8704;SDS011;4389;41.932;25.904;2022-10-15T06:44:10;6.30;;;3.13;;
8704;SDS011;4389;41.932;25.904;2022-10-15T06:46:37;6.77;;;2.87;;
8704;SDS011;4389;41.932;25.904;2022-10-15T06:49:04;9.67;;;3.10;;
8704;SDS011;4389;41.932;25.904;2022-10-15T06:51:30;10.10;;;3.20;;
8704;SDS011;4389;41.932;25.904;2022-10-15T06:53:59;10.30;;;3.47;;
8704;SDS011;4389;41.932;25.904;2022-10-15T06:56:26;8.17;;;4.47;;
8704;SDS011;4389;41.932;25.904;2022-10-15T06:58:52;12.23;;;4.17;;
8704;SDS011;4389;41.932;25.904;2022-10-15T07:01:19;9.40;;;4.97;;
8704;SDS011;4389;41.932;25.904;2022-10-15T07:03:47;9.10;;;5.63;;
8704;SDS011;4389;41.932;25.904;2022-10-15T07:06:15;10.53;;;5.60;;
8704;SDS011;4389;41.932;25.904;2022-10-15T07:08:42;12.37;;;5.83;;
8704;SDS011;4389;41.932;25.904;2022-10-15T07:11:11;13.10;;;3.60;;
8704;SDS011;4389;41.932;25.904;2022-10-15T07:13:38;9.90;;;4.30;;
8704;SDS011;4389;41.932;25.904;2022-10-15T07:16:06;9.47;;;3.33;;
8704;SDS011;4389;41.932;25.904;2022-10-15T07:18:34;6.47;;;3.27;;
8704;SDS011;4389;41.932;25.904;2022-10-15T07:21:02;5.00;;;3.70;;
8704;SDS011;4389;41.932;25.904;2022-10-15T07:23:31;10.97;;;3.87;;
8704;SDS011;4389;41.932;25.904;2022-10-15T07:25:59;3.90;;;3.03;;
8704;SDS011;4389;41.932;25.904;2022-10-15T07:28:27;5.83;;;3.13;;
8704;SDS011;4389;41.932;25.904;2022-10-15T07:30:58;10.07;;;3.50;;
8704;SDS011;4389;41.932;25.904;2022-10-15T07:33:25;5.67;;;3.03;;
8704;SDS011;4389;41.932;25.904;2022-10-15T07:35:52;5.07;;;2.77;;
8704;SDS011;4389;41.932;25.904;2022-10-15T07:38:19;9.43;;;3.07;;
8704;SDS011;4389;41.932;25.904;2022-10-15T07:40:46;5.83;;;2.47;;
8704;SDS011;4389;41.932;25.904;2022-10-15T07:43:13;12.43;;;3.33;;
8704;SDS011;4389;41.932;25.904;2022-10-15T07:45:41;5.60;;;3.50;;
8704;SDS011;4389;41.932;25.904;2022-10-15T07:48:13;3.53;;;2.73;;
8704;SDS011;4389;41.932;25.904;2022-10-15T07:50:40;8.67;;;3.57;;
8704;SDS011;4389;41.932;25.904;2022-10-15T07:53:07;7.77;;;3.20;;
8704;SDS011;4389;41.932;25.904;2022-10-15T07:55:34;6.10;;;2.90;;
8704;SDS011;4389;41.932;25.904;2022-10-15T07:58:01;6.47;;;3.10;;
8704;SDS011;4389;41.932;25.904;2022-10-15T08:00:30;6.57;;;3.10;;
8704;SDS011;4389;41.932;25.904;2022-10-15T08:02:58;8.80;;;3.83;;
8704;SDS011;4389;41.932;25.904;2022-10-15T08:05:25;6.70;;;3.43;;
8704;SDS011;4389;41.932;25.904;2022-10-15T08:07:52;6.57;;;3.60;;
8704;SDS011;4389;41.932;25.904;2022-10-15T08:10:19;5.80;;;3.70;;
8704;SDS011;4389;41.932;25.904;2022-10-15T08:12:45;4.93;;;2.93;;
8704;SDS011;4389;41.932;25.904;2022-10-15T08:15:12;11.57;;;3.00;;
8704;SDS011;4389;41.932;25.904;2022-10-15T08:17:39;3.87;;;2.60;;
8704;SDS011;4389;41.932;25.904;2022-10-15T08:20:08;6.00;;;2.63;;
8704;SDS011;4389;41.932;25.904;2022-10-15T08:22:35;5.10;;;2.30;;
8704;SDS011;4389;41.932;25.904;2022-10-15T08:25:03;9.67;;;2.50;;
8704;SDS011;4389;41.932;25.904;2022-10-15T08:27:30;7.87;;;2.40;;
8704;SDS011;4389;41.932;25.904;2022-10-15T08:29:57;4.83;;;2.27;;
8704;SDS011;4389;41.932;25.904;2022-10-15T08:32:24;12.43;;;2.90;;
8704;SDS011;4389;41.932;25.904;2022-10-15T08:34:51;4.90;;;2.33;;
8704;SDS011;4389;41.932;25.904;2022-10-15T08:37:19;5.57;;;3.10;;
8704;SDS011;4389;41.932;25.904;2022-10-15T08:39:46;18.93;;;3.07;;
8704;SDS011;4389;41.932;25.904;2022-10-15T08:42:13;9.07;;;2.90;;
8704;SDS011;4389;41.932;25.904;2022-10-15T08:44:45;6.27;;;2.73;;
8704;SDS011;4389;41.932;25.904;2022-10-15T08:47:22;6.00;;;2.93;;
8704;SDS011;4389;41.932;25.904;2022-10-15T08:49:54;8.90;;;2.63;;
8704;SDS011;4389;41.932;25.904;2022-10-15T08:52:27;8.70;;;2.57;;
8704;SDS011;4389;41.932;25.904;2022-10-15T08:55:07;7.33;;;2.43;;
8704;SDS011;4389;41.932;25.904;2022-10-15T08:57:38;4.53;;;2.20;;
8704;SDS011;4389;41.932;25.904;2022-10-15T09:00:11;5.33;;;2.37;;
8704;SDS011;4389;41.932;25.904;2022-10-15T09:02:44;10.77;;;2.80;;
8704;SDS011;4389;41.932;25.904;2022-10-15T09:05:26;7.10;;;3.33;;
8704;SDS011;4389;41.932;25.904;2022-10-15T09:08:01;4.73;;;2.30;;
8704;SDS011;4389;41.932;25.904;2022-10-15T09:10:38;8.63;;;2.40;;
8704;SDS011;4389;41.932;25.904;2022-10-15T09:13:10;10.33;;;2.50;;
8704;SDS011;4389;41.932;25.904;2022-10-15T09:15:41;4.30;;;2.43;;
8704;SDS011;4389;41.932;25.904;2022-10-15T09:18:16;7.73;;;2.93;;
8704;SDS011;4389;41.932;25.904;2022-10-15T09:20:47;3.97;;;2.43;;
8704;SDS011;4389;41.932;25.904;2022-10-15T09:23:17;6.73;;;2.60;;
8704;SDS011;4389;41.932;25.904;2022-10-15T09:25:48;8.50;;;3.37;;
8704;SDS011;4389;41.932;25.904;2022-10-15T09:28:23;6.80;;;2.50;;
8704;SDS011;4389;41.932;25.904;2022-10-15T09:30:55;12.27;;;3.40;;
8704;SDS011;4389;41.932;25.904;2022-10-15T09:33:32;8.17;;;2.97;;
8704;SDS011;4389;41.932;25.904;2022-10-15T09:36:12;6.97;;;2.83;;
8704;SDS011;4389;41.932;25.904;2022-10-15T09:38:56;8.07;;;3.00;;
8704;SDS011;4389;41.932;25.904;2022-10-15T09:41:33;7.27;;;2.80;;
8704;SDS011;4389;41.932;25.904;2022-10-15T09:44:07;6.33;;;3.50;;
8704;SDS011;4389;41.932;25.904;2022-10-15T09:46:41;12.93;;;3.10;;
8704;SDS011;4389;41.932;25.904;2022-10-15T09:49:11;11.30;;;3.83;;
8704;SDS011;4389;41.932;25.904;2022-10-15T09:51:44;5.67;;;3.00;;
8704;SDS011;4389;41.932;25.904;2022-10-15T09:54:20;7.57;;;3.30;;
8704;SDS011;4389;41.932;25.904;2022-10-15T09:56:53;9.53;;;3.60;;
8704;SDS011;4389;41.932;25.904;2022-10-15T09:59:21;8.27;;;2.70;;
8704;SDS011;4389;41.932;25.904;2022-10-15T10:01:56;46.73;;;5.93;;
8704;SDS011;4389;41.932;25.904;2022-10-15T10:04:25;35.93;;;6.00;;
8704;SDS011;4389;41.932;25.904;2022-10-15T10:06:54;7.47;;;3.47;;
8704;SDS011;4389;41.932;25.904;2022-10-15T10:09:26;7.93;;;3.40;;
8704;SDS011;4389;41.932;25.904;2022-10-15T10:11:57;9.50;;;3.70;;
8704;SDS011;4389;41.932;25.904;2022-10-15T10:14:27;8.70;;;3.30;;
8704;SDS011;4389;41.932;25.904;2022-10-15T10:17:09;8.23;;;3.37;;
8704;SDS011;4389;41.932;25.904;2022-10-15T10:19:41;6.37;;;3.57;;
8704;SDS011;4389;41.932;25.904;2022-10-15T10:22:11;9.97;;;3.77;;
8704;SDS011;4389;41.932;25.904;2022-10-15T10:24:42;6.40;;;3.10;;
8704;SDS011;4389;41.932;25.904;2022-10-15T10:27:19;20.40;;;3.87;;
8704;SDS011;4389;41.932;25.904;2022-10-15T10:29:49;7.50;;;3.10;;
8704;SDS011;4389;41.932;25.904;2022-10-15T10:32:20;9.60;;;3.57;;
8704;SDS011;4389;41.932;25.904;2022-10-15T10:34:48;8.43;;;4.07;;
8704;SDS011;4389;41.932;25.904;2022-10-15T10:37:16;7.13;;;3.30;;
8704;SDS011;4389;41.932;25.904;2022-10-15T10:39:44;8.13;;;3.60;;
8704;SDS011;4389;41.932;25.904;2022-10-15T10:42:22;6.87;;;3.27;;
8704;SDS011;4389;41.932;25.904;2022-10-15T10:44:51;6.67;;;4.63;;
8704;SDS011;4389;41.932;25.904;2022-10-15T10:47:19;18.23;;;3.63;;
8704;SDS011;4389;41.932;25.904;2022-10-15T10:49:47;6.90;;;3.73;;
8704;SDS011;4389;41.932;25.904;2022-10-15T10:52:23;6.80;;;3.47;;
8704;SDS011;4389;41.932;25.904;2022-10-15T10:54:57;7.27;;;2.60;;
8704;SDS011;4389;41.932;25.904;2022-10-15T10:57:31;10.60;;;3.50;;
8704;SDS011;4389;41.932;25.904;2022-10-15T11:00:06;9.40;;;3.40;;
8704;SDS011;4389;41.932;25.904;2022-10-15T11:02:38;16.23;;;3.83;;
8704;SDS011;4389;41.932;25.904;2022-10-15T11:05:08;7.03;;;2.97;;
8704;SDS011;4389;41.932;25.904;2022-10-15T11:07:35;17.23;;;7.20;;
8704;SDS011;4389;41.932;25.904;2022-10-15T11:10:10;10.23;;;4.23;;
8704;SDS011;4389;41.932;25.904;2022-10-15T11:15:45;8.37;;;3.33;;
8704;SDS011;4389;41.932;25.904;2022-10-15T11:18:21;9.13;;;3.50;;
8704;SDS011;4389;41.932;25.904;2022-10-15T11:20:57;11.30;;;5.90;;
8704;SDS011;4389;41.932;25.904;2022-10-15T11:26:31;18.50;;;5.93;;
8704;SDS011;4389;41.932;25.904;2022-10-15T11:29:10;9.60;;;4.90;;
8704;SDS011;4389;41.932;25.904;2022-10-15T11:31:43;11.33;;;6.37;;
8704;SDS011;4389;41.932;25.904;2022-10-15T11:34:21;16.73;;;5.43;;
8704;SDS011;4389;41.932;25.904;2022-10-15T11:37:00;12.18;;;5.15;;
8704;SDS011;4389;41.932;25.904;2022-10-15T11:39:47;9.30;;;4.73;;
8704;SDS011;4389;41.932;25.904;2022-10-15T11:42:26;13.37;;;6.57;;
8704;SDS011;4389;41.932;25.904;2022-10-15T11:45:02;12.37;;;6.20;;
8704;SDS011;4389;41.932;25.904;2022-10-15T11:47:48;11.00;;;6.50;;
8704;SDS011;4389;41.932;25.904;2022-10-15T11:50:25;14.13;;;8.03;;
8704;SDS011;4389;41.932;25.904;2022-10-15T11:53:02;13.17;;;6.07;;
8704;SDS011;4389;41.932;25.904;2022-10-15T11:55:51;11.73;;;6.03;;
8704;SDS011;4389;41.932;25.904;2022-10-15T11:58:25;12.00;;;6.37;;
8704;SDS011;4389;41.932;25.904;2022-10-15T12:00:58;15.70;;;6.53;;
8704;SDS011;4389;41.932;25.904;2022-10-15T12:03:29;14.47;;;8.13;;
8704;SDS011;4389;41.932;25.904;2022-10-15T12:06:06;15.57;;;8.17;;
8704;SDS011;4389;41.932;25.904;2022-10-15T12:08:38;17.90;;;11.50;;
8704;SDS011;4389;41.932;25.904;2022-10-15T12:11:10;22.47;;;11.80;;
8704;SDS011;4389;41.932;25.904;2022-10-15T12:13:49;16.83;;;8.00;;
8704;SDS011;4389;41.932;25.904;2022-10-15T12:16:23;17.63;;;10.23;;
8704;SDS011;4389;41.932;25.904;2022-10-15T12:18:57;15.00;;;9.40;;
8704;SDS011;4389;41.932;25.904;2022-10-15T12:21:31;16.47;;;9.53;;
8704;SDS011;4389;41.932;25.904;2022-10-15T12:24:01;17.63;;;10.10;;
8704;SDS011;4389;41.932;25.904;2022-10-15T12:26:31;14.33;;;7.57;;
8704;SDS011;4389;41.932;25.904;2022-10-15T12:29:01;12.43;;;7.97;;
8704;SDS011;4389;41.932;25.904;2022-10-15T12:31:43;19.80;;;7.53;;
8704;SDS011;4389;41.932;25.904;2022-10-15T12:34:24;12.13;;;7.43;;
8704;SDS011;4389;41.932;25.904;2022-10-15T12:37:00;13.20;;;9.73;;
8704;SDS011;4389;41.932;25.904;2022-10-15T12:39:29;15.20;;;7.73;;
8704;SDS011;4389;41.932;25.904;2022-10-15T12:41:56;14.90;;;11.50;;
8704;SDS011;4389;41.932;25.904;2022-10-15T12:44:26;16.73;;;9.07;;
8704;SDS011;4389;41.932;25.904;2022-10-15T12:46:54;13.47;;;8.17;;
8704;SDS011;4389;41.932;25.904;2022-10-15T12:55:22;9.83;;;6.23;;
8704;SDS011;4389;41.932;25.904;2022-10-15T12:57:51;11.77;;;5.73;;
8704;SDS011;4389;41.932;25.904;2022-10-15T13:00:33;10.90;;;4.33;;
8704;SDS011;4389;41.932;25.904;2022-10-15T13:03:08;8.87;;;5.37;;
8704;SDS011;4389;41.932;25.904;2022-10-15T13:06:11;15.63;;;5.07;;
8704;SDS011;4389;41.932;25.904;2022-10-15T13:08:42;9.93;;;3.90;;
8704;SDS011;4389;41.932;25.904;2022-10-15T13:11:16;15.17;;;5.83;;
8704;SDS011;4389;41.932;25.904;2022-10-15T13:13:46;10.93;;;5.07;;
8704;SDS011;4389;41.932;25.904;2022-10-15T13:16:17;11.80;;;3.70;;
8704;SDS011;4389;41.932;25.904;2022-10-15T13:18:47;6.93;;;3.97;;
8704;SDS011;4389;41.932;25.904;2022-10-15T13:21:15;8.60;;;4.80;;
8704;SDS011;4389;41.932;25.904;2022-10-15T13:23:45;8.37;;;4.23;;
8704;SDS011;4389;41.932;25.904;2022-10-15T13:26:17;9.03;;;5.47;;
8704;SDS011;4389;41.932;25.904;2022-10-15T13:28:46;11.90;;;5.33;;
8704;SDS011;4389;41.932;25.904;2022-10-15T13:31:15;11.17;;;6.53;;
8704;SDS011;4389;41.932;25.904;2022-10-15T13:33:48;13.17;;;4.23;;
8704;SDS011;4389;41.932;25.904;2022-10-15T13:36:18;15.77;;;5.67;;
8704;SDS011;4389;41.932;25.904;2022-10-15T13:38:51;20.13;;;7.57;;
8704;SDS011;4389;41.932;25.904;2022-10-15T13:41:25;20.27;;;6.77;;
8704;SDS011;4389;41.932;25.904;2022-10-15T13:43:54;11.40;;;4.27;;
8704;SDS011;4389;41.932;25.904;2022-10-15T13:46:25;23.47;;;6.00;;
8704;SDS011;4389;41.932;25.904;2022-10-15T13:49:00;6.07;;;3.00;;
8704;SDS011;4389;41.932;25.904;2022-10-15T13:51:32;3.20;;;2.57;;
8704;SDS011;4389;41.932;25.904;2022-10-15T13:54:06;7.33;;;3.07;;
8704;SDS011;4389;41.932;25.904;2022-10-15T13:56:35;9.90;;;2.93;;
8704;SDS011;4389;41.932;25.904;2022-10-15T13:59:11;4.20;;;2.57;;
8704;SDS011;4389;41.932;25.904;2022-10-15T14:01:45;3.90;;;2.77;;
8704;SDS011;4389;41.932;25.904;2022-10-15T14:04:15;3.63;;;2.53;;
8704;SDS011;4389;41.932;25.904;2022-10-15T14:06:50;4.60;;;3.00;;
8704;SDS011;4389;41.932;25.904;2022-10-15T14:09:20;5.87;;;2.90;;
8704;SDS011;4389;41.932;25.904;2022-10-15T14:11:51;9.37;;;2.97;;
8704;SDS011;4389;41.932;25.904;2022-10-15T14:14:28;9.57;;;2.80;;
8704;SDS011;4389;41.932;25.904;2022-10-15T14:16:58;6.07;;;2.97;;
8704;SDS011;4389;41.932;25.904;2022-10-15T14:19:27;4.23;;;2.90;;
8704;SDS011;4389;41.932;25.904;2022-10-15T14:21:56;5.87;;;3.30;;
8704;SDS011;4389;41.932;25.904;2022-10-15T14:24:27;4.53;;;2.70;;
8704;SDS011;4389;41.932;25.904;2022-10-15T14:27:00;4.03;;;2.77;;
8704;SDS011;4389;41.932;25.904;2022-10-15T14:29:33;7.70;;;3.30;;
8704;SDS011;4389;41.932;25.904;2022-10-15T14:32:17;7.13;;;3.27;;
8704;SDS011;4389;41.932;25.904;2022-10-15T14:34:46;4.90;;;3.87;;
8704;SDS011;4389;41.932;25.904;2022-10-15T14:37:29;6.47;;;4.27;;
8704;SDS011;4389;41.932;25.904;2022-10-15T14:40:11;5.30;;;4.23;;
8704;SDS011;4389;41.932;25.904;2022-10-15T14:42:46;7.90;;;4.57;;
8704;SDS011;4389;41.932;25.904;2022-10-15T14:45:19;11.17;;;5.43;;
8704;SDS011;4389;41.932;25.904;2022-10-15T14:47:51;12.53;;;6.37;;
8704;SDS011;4389;41.932;25.904;2022-10-15T14:50:21;12.47;;;5.93;;
8704;SDS011;4389;41.932;25.904;2022-10-15T14:52:50;14.00;;;5.83;;
8704;SDS011;4389;41.932;25.904;2022-10-15T14:55:25;12.37;;;6.20;;
8704;SDS011;4389;41.932;25.904;2022-10-15T14:57:57;10.00;;;5.60;;
8704;SDS011;4389;41.932;25.904;2022-10-15T15:00:26;10.77;;;5.67;;
8704;SDS011;4389;41.932;25.904;2022-10-15T15:02:58;11.10;;;5.47;;
8704;SDS011;4389;41.932;25.904;2022-10-15T15:05:28;10.13;;;4.50;;
8704;SDS011;4389;41.932;25.904;2022-10-15T15:07:55;11.97;;;5.20;;
8704;SDS011;4389;41.932;25.904;2022-10-15T15:10:23;6.30;;;4.47;;
8704;SDS011;4389;41.932;25.904;2022-10-15T15:12:52;7.60;;;4.10;;
8704;SDS011;4389;41.932;25.904;2022-10-15T15:15:21;9.40;;;4.30;;
8704;SDS011;4389;41.932;25.904;2022-10-15T15:17:49;5.73;;;4.00;;
8704;SDS011;4389;41.932;25.904;2022-10-15T15:20:18;6.30;;;4.20;;
8704;SDS011;4389;41.932;25.904;2022-10-15T15:22:46;5.03;;;3.97;;
8704;SDS011;4389;41.932;25.904;2022-10-15T15:25:16;4.80;;;3.83;;
8704;SDS011;4389;41.932;25.904;2022-10-15T15:27:44;10.20;;;3.93;;
8704;SDS011;4389;41.932;25.904;2022-10-15T15:30:13;10.20;;;4.63;;
8704;SDS011;4389;41.932;25.904;2022-10-15T15:32:41;9.67;;;4.20;;